Aeroporto :
LOGIN :

Iscrizione | Disclaimer

   EN    FR    IT 

 










Sommario :    VFR   VFR Marginale   IFR   IFR Intensivo   IFR Molto Intensivo
Visibilità : 
Base nubi : 
>= 8 km
>= 3000ft
5 / 8 km
1000 / 3000 ft
1500m / 5 km
500 / 1000 ft
800 / 1500m
200 / 500 ft
< 800m
< 200 ft
Simboli :   Temporali  Nebbia  Neve Forte  Precipitazioni Forti  Vento > 20 kt
SIGMETs :   Varie  Temporali  Ghiacco  Turbolenza  Onda orograficha  Ceneri Vulcaniche






- Altitudine del aeroporto : 995 ft
- Codice IATA : KTW


EPKT - Katowice

ULTIMO METAR :
  • 050400Z 16006KT 9999 SCT035 BKN040 15/12 Q0995

METARs OBSOLETI :
  • 050330Z 13007KT 9999 FEW037 SCT043 15/12 Q0995
  • 050300Z 12005KT 9999 BKN037 15/12 Q0995
  • 050230Z 13004KT 9999 BKN041 15/12 Q0995
  • 050200Z 14005KT CAVOK 15/12 Q0995
  • 050130Z 12005KT CAVOK 15/12 Q0995

TAF TAF EPKT
Valido dal 05 a 00 ore il 06 a 00 ore UTC


042330Z 0500/0524 15010KT 9999 SCT040
TEMPO 0500/0506 -SHRA BKN030CB
PROB30
TEMPO 0500/0506 TSRA
BECMG 0506/0508 23010KT
TEMPO 0508/0520 SHRA BKN030CB
PROB40
TEMPO 0508/0516 25018G28KT 4000 TSRA BKN014CB



MetMap, La meteo Aeronautica in un colpo d'occhio ! - Copyright ORBIFLY Dicembre 2007 - Disclaimer

ORBIFLY MET'MAP TEAM :

Programmazione e sviluppo : Alexandra Zaïnal
Concezione : Baudouin d'Aumeries
Aiuto per la programmazione : Marc-Olivier Méhu
Supporto tecnico e logistico : Manuel Goepfert
Aiuto per la traduzione : Arnaldo La Scala

Contatto : metmap@orbifly.com




FONTI E CREDITI :

   NOAA